Time;durP1;ratioP1;P1;durP2;ratioP2;P2;SDS_P1;SDS_P2;PMS_P1;PMS_P2;Temp;Humidity;BMP_temperature;BMP_pressure;BME280_temperature;BME280_humidity;BME280_pressure;Samples;Min_cycle;Max_cycle;Signal;HPM_P1;HPM_P2
2023/04/13 00:00:28;;;;;;;6.15;2.35;;;6.80;99.90;;;;;;5040130;28;20040;-81
2023/04/13 00:03:02;;;;;;;6.38;1.90;;;6.80;99.90;;;;;;5011879;28;20093;-81
2023/04/13 00:05:28;;;;;;;5.90;2.00;;;6.90;99.90;;;;;;5011198;28;20122;-82
2023/04/13 00:07:54;;;;;;;6.45;2.28;;;6.80;99.90;;;;;;5046391;28;20057;-82
2023/04/13 00:10:20;;;;;;;4.38;2.17;;;6.90;99.90;;;;;;5021973;28;20041;-82
2023/04/13 00:12:47;;;;;;;5.90;2.08;;;6.80;99.90;;;;;;5007119;28;20669;-82
2023/04/13 00:15:18;;;;;;;7.00;1.85;;;6.90;99.90;;;;;;5010374;28;20057;-81
2023/04/13 00:17:46;;;;;;;6.93;2.47;;;6.90;99.90;;;;;;5025896;28;20067;-81
2023/04/13 00:20:13;;;;;;;4.68;2.40;;;6.90;99.90;;;;;;5047366;28;20048;-82
2023/04/13 00:22:43;;;;;;;4.95;2.45;;;6.90;99.90;;;;;;5022614;28;20135;-81
2023/04/13 00:25:11;;;;;;;5.50;2.20;;;7.00;99.90;;;;;;5045353;28;20582;-81
2023/04/13 00:27:42;;;;;;;5.80;2.65;;;6.90;99.90;;;;;;5043657;28;20041;-81
2023/04/13 00:30:13;;;;;;;5.40;2.53;;;6.90;99.90;;;;;;5012565;28;20514;-82
2023/04/13 00:32:41;;;;;;;4.20;2.20;;;6.90;99.90;;;;;;5026389;28;20072;-82
2023/04/13 00:35:11;;;;;;;6.70;2.60;;;6.90;99.90;;;;;;5035203;28;20112;-82
2023/04/13 00:37:37;;;;;;;8.27;3.40;;;6.90;99.90;;;;;;5027600;28;20124;-82
2023/04/13 00:40:07;;;;;;;7.00;2.67;;;6.90;99.90;;;;;;5022747;28;20053;-81
2023/04/13 00:42:33;;;;;;;9.18;3.38;;;6.90;99.90;;;;;;5027419;28;20041;-82
2023/04/13 00:44:59;;;;;;;6.38;2.95;;;6.90;99.90;;;;;;5041291;28;20144;-81
2023/04/13 00:47:27;;;;;;;5.47;3.30;;;7.10;99.90;;;;;;5035648;28;20795;-82
2023/04/13 00:49:54;;;;;;;8.45;3.13;;;6.90;99.90;;;;;;5011027;28;20049;-82
2023/04/13 00:52:21;;;;;;;5.25;3.08;;;6.90;99.90;;;;;;5041929;28;20037;-82
2023/04/13 00:54:48;;;;;;;5.72;3.30;;;6.90;99.90;;;;;;5041035;28;20037;-82
2023/04/13 00:57:18;;;;;;;5.18;2.72;;;6.90;99.90;;;;;;5021834;28;20582;-82
2023/04/13 00:59:46;;;;;;;5.32;3.25;;;6.90;99.90;;;;;;5022754;28;20509;-82
2023/04/13 01:02:13;;;;;;;6.55;3.53;;;6.90;99.90;;;;;;5024551;28;20490;-82
2023/04/13 01:04:40;;;;;;;8.98;3.80;;;7.00;99.90;;;;;;5042048;28;20040;-81
2023/04/13 01:07:27;;;;;;;5.45;3.13;;;6.90;99.90;;;;;;5040193;28;20041;-81
2023/04/13 01:10:13;;;;;;;6.75;3.15;;;6.90;99.90;;;;;;5027505;28;20066;-81
2023/04/13 01:13:01;;;;;;;5.18;3.03;;;6.90;99.90;;;;;;5007950;28;20142;-81
2023/04/13 01:15:28;;;;;;;7.55;3.03;;;6.90;99.90;;;;;;5043299;28;20048;-81
2023/04/13 01:17:57;;;;;;;6.00;2.78;;;6.80;99.90;;;;;;5046587;28;20128;-81
2023/04/13 01:20:27;;;;;;;4.90;2.85;;;6.80;99.90;;;;;;5042690;28;20076;-82
2023/04/13 01:22:56;;;;;;;6.65;2.72;;;6.90;99.90;;;;;;5025142;28;20554;-82
2023/04/13 01:25:46;;;;;;;7.68;3.40;;;6.80;99.90;;;;;;5033416;28;20051;-82
2023/04/13 01:28:18;;;;;;;7.07;3.17;;;6.70;99.90;;;;;;5041481;28;20125;-82
2023/04/13 01:30:50;;;;;;;6.65;3.15;;;6.70;99.90;;;;;;5029936;28;20589;-82
2023/04/13 01:33:16;;;;;;;7.20;2.97;;;6.80;99.90;;;;;;5046684;28;20037;-82
2023/04/13 01:35:43;;;;;;;5.35;3.00;;;6.70;99.90;;;;;;5025205;28;20052;-81
2023/04/13 01:38:11;;;;;;;6.13;2.72;;;6.70;99.90;;;;;;5024487;28;20114;-82
2023/04/13 01:40:39;;;;;;;5.72;2.25;;;6.70;99.90;;;;;;5025337;28;20036;-81
2023/04/13 01:43:06;;;;;;;6.10;2.40;;;6.70;99.90;;;;;;5028872;28;20115;-81
2023/04/13 01:45:44;;;;;;;5.22;2.33;;;6.70;99.90;;;;;;5045062;28;20695;-81
2023/04/13 01:48:17;;;;;;;6.90;2.25;;;6.70;99.90;;;;;;5045861;28;20150;-81
2023/04/13 01:50:49;;;;;;;6.40;2.22;;;6.60;99.90;;;;;;5042444;28;20041;-82
2023/04/13 01:53:18;;;;;;;3.92;1.88;;;6.70;99.90;;;;;;5024858;28;20041;-82
2023/04/13 01:55:45;;;;;;;4.53;2.42;;;6.60;99.90;;;;;;5025271;28;20606;-81
2023/04/13 01:58:13;;;;;;;5.72;2.17;;;6.60;99.90;;;;;;5042811;28;20037;-82
2023/04/13 02:00:39;;;;;;;5.82;2.10;;;6.60;99.90;;;;;;5027277;28;20040;-81
2023/04/13 02:03:10;;;;;;;5.90;2.20;;;6.60;99.90;;;;;;5025346;28;20095;-82
2023/04/13 02:05:38;;;;;;;6.03;2.20;;;6.60;99.90;;;;;;5042706;28;20094;-81
2023/04/13 02:08:05;;;;;;;5.85;2.10;;;6.70;99.90;;;;;;5023509;28;20083;-81
2023/04/13 02:10:33;;;;;;;5.75;1.63;;;6.60;99.90;;;;;;5042263;28;20222;-82
2023/04/13 02:12:59;;;;;;;6.10;2.00;;;6.60;99.90;;;;;;5042294;28;20044;-81
2023/04/13 02:15:25;;;;;;;4.18;1.92;;;6.60;99.90;;;;;;5042805;28;20144;-82
2023/04/13 02:17:51;;;;;;;6.15;1.92;;;6.60;99.90;;;;;;5022946;28;20055;-81
2023/04/13 02:20:18;;;;;;;4.28;1.55;;;6.60;99.90;;;;;;5041029;28;20414;-81
2023/04/13 02:22:44;;;;;;;4.53;1.40;;;6.60;99.90;;;;;;5007567;28;20048;-81
2023/04/13 02:25:11;;;;;;;3.47;1.60;;;6.60;99.90;;;;;;5030515;28;20056;-81
2023/04/13 02:27:38;;;;;;;3.47;1.40;;;6.60;99.90;;;;;;5024058;28;20091;-82
2023/04/13 02:30:05;;;;;;;3.78;1.63;;;6.60;99.90;;;;;;5033408;28;20036;-81
2023/04/13 02:32:31;;;;;;;4.78;1.52;;;6.60;99.90;;;;;;5039126;28;20036;-82
2023/04/13 02:34:58;;;;;;;5.38;1.88;;;6.60;99.90;;;;;;5042078;28;20053;-81
2023/04/13 02:37:24;;;;;;;5.90;1.83;;;6.60;99.90;;;;;;5042362;28;20044;-81
2023/04/13 02:39:50;;;;;;;3.90;1.40;;;6.60;99.90;;;;;;5026143;28;20045;-82
2023/04/13 02:42:16;;;;;;;5.05;1.25;;;6.60;99.90;;;;;;5025443;28;20569;-82
2023/04/13 02:44:42;;;;;;;5.13;1.50;;;6.60;99.90;;;;;;5045521;28;20075;-82
2023/04/13 02:47:08;;;;;;;7.10;1.63;;;6.60;99.90;;;;;;5041056;28;20363;-82
2023/04/13 02:49:34;;;;;;;4.22;1.60;;;6.60;99.90;;;;;;5041296;28;20072;-82
2023/04/13 02:52:00;;;;;;;4.20;1.60;;;6.50;99.90;;;;;;5040416;28;20091;-81
2023/04/13 02:54:26;;;;;;;4.45;1.30;;;6.50;99.90;;;;;;5039277;28;20108;-82
2023/04/13 02:56:52;;;;;;;2.63;1.08;;;6.50;99.90;;;;;;5023143;28;20060;-82
2023/04/13 02:59:17;;;;;;;4.30;1.45;;;6.50;99.90;;;;;;5038599;28;20041;-82
2023/04/13 03:01:44;;;;;;;3.00;1.35;;;6.50;99.90;;;;;;5041310;28;20858;-82
2023/04/13 03:04:10;;;;;;;3.38;1.20;;;6.50;99.90;;;;;;5022684;28;20049;-81
2023/04/13 03:06:36;;;;;;;6.53;1.80;;;6.50;99.90;;;;;;5041426;28;20041;-81
2023/04/13 03:09:03;;;;;;;4.47;1.70;;;6.50;99.90;;;;;;5025540;28;20151;-82
2023/04/13 03:11:29;;;;;;;5.22;1.60;;;6.50;99.90;;;;;;5029088;28;20049;-81
2023/04/13 03:13:57;;;;;;;4.22;1.55;;;6.80;99.90;;;;;;5006650;28;20061;-82
2023/04/13 03:16:23;;;;;;;3.05;1.17;;;6.50;99.90;;;;;;5026094;28;20703;-82
2023/04/13 03:18:50;;;;;;;5.20;1.63;;;6.50;99.90;;;;;;5024279;28;20053;-82
2023/04/13 03:21:16;;;;;;;6.93;1.50;;;6.50;99.90;;;;;;5025127;28;20482;-82
2023/04/13 03:23:42;;;;;;;4.22;1.40;;;6.50;99.90;;;;;;5022882;28;20151;-82
2023/04/13 03:26:08;;;;;;;2.58;1.30;;;6.50;99.90;;;;;;5022027;28;20057;-81
2023/04/13 03:28:36;;;;;;;3.50;1.20;;;6.50;99.90;;;;;;5040144;28;20045;-82
2023/04/13 03:31:02;;;;;;;5.28;1.90;;;6.50;99.90;;;;;;5022180;28;20044;-82
2023/04/13 03:33:28;;;;;;;4.10;1.00;;;6.50;99.90;;;;;;5023179;28;20459;-82
2023/04/13 03:35:54;;;;;;;3.92;1.10;;;6.40;99.90;;;;;;5040219;28;20072;-81
2023/04/13 03:38:19;;;;;;;5.05;1.35;;;6.70;99.90;;;;;;5021737;28;20118;-81
2023/04/13 03:40:45;;;;;;;5.03;1.33;;;6.50;99.90;;;;;;5021990;28;20459;-82
2023/04/13 03:43:11;;;;;;;3.45;1.40;;;6.50;99.90;;;;;;5031911;28;20384;-81
2023/04/13 03:45:37;;;;;;;5.07;1.40;;;6.60;99.90;;;;;;5028479;28;20036;-82
2023/04/13 03:48:04;;;;;;;6.40;1.65;;;6.60;99.90;;;;;;5031089;28;20078;-81
2023/04/13 03:50:31;;;;;;;3.53;1.23;;;6.50;99.90;;;;;;5040965;28;20044;-81
2023/04/13 03:52:56;;;;;;;4.45;1.63;;;6.50;99.90;;;;;;5036898;28;20044;-82
2023/04/13 03:55:22;;;;;;;5.13;1.50;;;6.50;99.90;;;;;;5045890;28;20045;-82
2023/04/13 03:57:48;;;;;;;5.03;1.20;;;6.50;99.90;;;;;;5043741;28;20787;-82
2023/04/13 04:00:14;;;;;;;2.83;1.27;;;6.50;99.90;;;;;;5022468;28;20037;-81
2023/04/13 04:02:41;;;;;;;4.57;1.35;;;6.60;99.90;;;;;;5045283;28;20813;-82
2023/04/13 04:05:06;;;;;;;6.97;1.70;;;6.60;99.90;;;;;;5042368;28;20590;-81
2023/04/13 04:07:32;;;;;;;3.67;1.10;;;6.60;99.90;;;;;;5021431;28;20120;-82
2023/04/13 04:09:58;;;;;;;2.22;1.00;;;6.60;99.90;;;;;;5021753;28;20091;-82
2023/04/13 04:12:23;;;;;;;5.22;1.70;;;6.60;99.90;;;;;;5024567;28;20083;-81
2023/04/13 04:14:49;;;;;;;3.55;1.40;;;6.80;99.90;;;;;;5038985;28;20047;-82
2023/04/13 04:17:15;;;;;;;5.80;1.80;;;6.50;99.90;;;;;;5039755;28;20036;-81
2023/04/13 04:19:40;;;;;;;4.78;1.50;;;6.60;99.90;;;;;;5021347;28;20163;-82
2023/04/13 04:22:06;;;;;;;5.53;1.67;;;6.60;99.90;;;;;;5043071;28;20106;-82
2023/04/13 04:24:33;;;;;;;3.33;1.52;;;6.60;99.90;;;;;;5011645;28;20040;-81
2023/04/13 04:26:59;;;;;;;3.45;1.40;;;6.60;99.90;;;;;;5047924;28;20040;-81
2023/04/13 04:29:33;;;;;;;4.93;2.10;;;6.60;99.90;;;;;;5005296;28;20589;-81
2023/04/13 04:32:04;;;;;;;3.13;1.52;;;6.60;99.90;;;;;;5036902;28;20041;-81
2023/04/13 04:34:30;;;;;;;5.88;1.73;;;6.60;99.90;;;;;;5025877;28;20076;-81
2023/04/13 04:36:56;;;;;;;5.30;1.77;;;6.60;99.90;;;;;;5021585;28;20057;-82
2023/04/13 04:39:22;;;;;;;4.70;1.70;;;6.50;99.90;;;;;;5021730;28;20041;-81
2023/04/13 04:41:53;;;;;;;4.47;1.65;;;6.60;99.90;;;;;;5008836;28;20776;-81
2023/04/13 04:44:24;;;;;;;6.53;1.75;;;6.50;99.90;;;;;;5025720;28;20053;-81
2023/04/13 04:46:51;;;;;;;5.55;1.95;;;6.50;99.90;;;;;;5028903;28;20049;-81
2023/04/13 04:49:20;;;;;;;4.65;2.03;;;6.40;99.90;;;;;;5048863;28;20043;-81
2023/04/13 04:51:50;;;;;;;4.28;2.00;;;6.40;99.90;;;;;;5041649;28;20048;-81
2023/04/13 04:54:17;;;;;;;6.05;2.08;;;6.40;99.90;;;;;;5052908;28;20048;-81
2023/04/13 04:56:44;;;;;;;5.00;1.98;;;6.40;99.90;;;;;;5051823;28;20048;-82
2023/04/13 04:59:10;;;;;;;5.30;2.15;;;6.40;99.90;;;;;;5058041;28;20035;-82
2023/04/13 05:01:37;;;;;;;4.93;2.20;;;6.40;99.90;;;;;;5033007;28;20049;-82
2023/04/13 05:04:03;;;;;;;5.78;2.30;;;6.30;99.90;;;;;;5026341;28;20053;-83
2023/04/13 05:06:32;;;;;;;7.15;2.50;;;6.40;99.90;;;;;;5034855;28;20131;-80
2023/04/13 05:09:05;;;;;;;6.75;3.25;;;6.40;99.90;;;;;;5042398;28;20064;-80
2023/04/13 05:11:31;;;;;;;8.15;2.92;;;6.40;99.90;;;;;;5029514;28;20148;-81
2023/04/13 05:13:57;;;;;;;6.10;3.20;;;6.40;99.90;;;;;;5030095;28;20067;-81
2023/04/13 05:16:23;;;;;;;6.22;3.03;;;6.20;99.90;;;;;;5030749;28;20538;-82
2023/04/13 05:18:49;;;;;;;5.20;3.10;;;6.40;99.90;;;;;;5026005;28;20061;-82
2023/04/13 05:21:16;;;;;;;7.40;3.13;;;6.40;99.90;;;;;;5025504;28;20151;-82
2023/04/13 05:23:42;;;;;;;9.82;3.42;;;6.40;99.90;;;;;;5029131;28;20061;-82
2023/04/13 05:26:10;;;;;;;7.70;3.53;;;6.40;99.90;;;;;;5031340;28;20118;-82
2023/04/13 05:28:37;;;;;;;7.68;3.97;;;6.40;99.90;;;;;;5046270;28;20037;-82
2023/04/13 05:31:04;;;;;;;6.28;3.42;;;6.40;99.90;;;;;;5051344;28;20510;-82
2023/04/13 05:33:30;;;;;;;7.22;3.45;;;6.40;99.90;;;;;;5032166;28;20144;-82
2023/04/13 05:35:59;;;;;;;6.50;3.05;;;6.40;99.90;;;;;;5030538;28;20059;-83
2023/04/13 05:38:25;;;;;;;8.05;3.80;;;6.40;99.90;;;;;;5044712;28;20029;-82
2023/04/13 05:40:52;;;;;;;6.28;3.47;;;6.50;99.90;;;;;;5045854;28;20110;-83
2023/04/13 05:43:19;;;;;;;6.57;3.35;;;6.50;99.90;;;;;;5026126;28;20124;-83
2023/04/13 05:45:45;;;;;;;7.45;3.95;;;6.50;99.90;;;;;;5049889;28;20032;-82
2023/04/13 05:48:14;;;;;;;6.68;3.03;;;6.50;99.90;;;;;;5051605;28;20037;-82
2023/04/13 05:50:40;;;;;;;8.30;3.90;;;6.60;99.90;;;;;;5051538;28;20041;-82
2023/04/13 05:53:06;;;;;;;9.00;3.53;;;6.50;99.90;;;;;;5033300;28;20102;-83
2023/04/13 05:55:32;;;;;;;7.93;3.53;;;6.50;99.90;;;;;;5049836;28;20041;-83
2023/04/13 05:58:03;;;;;;;8.70;3.10;;;6.50;99.90;;;;;;5045728;28;20036;-83
2023/04/13 06:00:28;;;;;;;8.05;3.53;;;6.60;99.90;;;;;;5029908;28;20083;-81
2023/04/13 06:02:56;;;;;;;10.27;4.07;;;6.50;99.90;;;;;;5030691;28;20170;-83
2023/04/13 06:05:23;;;;;;;7.88;3.35;;;6.60;99.90;;;;;;5052249;28;20531;-83
2023/04/13 06:07:49;;;;;;;6.75;3.05;;;7.10;99.90;;;;;;5052132;28;20060;-82
2023/04/13 06:10:18;;;;;;;6.22;2.88;;;6.60;99.90;;;;;;5016074;28;20044;-87
2023/04/13 06:12:47;;;;;;;7.57;3.25;;;6.60;99.90;;;;;;5021443;28;20049;-85
2023/04/13 06:15:13;;;;;;;6.50;2.47;;;6.60;99.90;;;;;;5049680;28;20106;-85
2023/04/13 06:17:40;;;;;;;10.27;3.53;;;6.70;99.90;;;;;;5036476;28;20111;-85
2023/04/13 06:20:07;;;;;;;9.27;3.50;;;6.80;99.90;;;;;;5053277;28;20063;-86
2023/04/13 06:22:33;;;;;;;8.30;3.13;;;6.80;99.90;;;;;;5045481;28;20041;-85
2023/04/13 06:25:00;;;;;;;6.28;3.20;;;6.90;99.90;;;;;;5028309;28;20439;-83
2023/04/13 06:27:26;;;;;;;13.07;3.13;;;6.90;99.90;;;;;;5048608;28;20037;-82
2023/04/13 06:29:52;;;;;;;8.13;3.15;;;7.00;99.90;;;;;;5026019;28;20466;-82
2023/04/13 06:32:18;;;;;;;11.45;3.88;;;7.00;99.90;;;;;;5030691;28;20190;-82
2023/04/13 06:34:46;;;;;;;9.02;3.25;;;7.10;99.90;;;;;;5035684;28;20498;-84
2023/04/13 06:37:12;;;;;;;9.80;3.30;;;7.20;99.90;;;;;;5035470;28;20044;-84
2023/04/13 06:39:38;;;;;;;7.68;3.08;;;7.20;99.90;;;;;;5044589;28;20351;-84
2023/04/13 06:42:04;;;;;;;9.02;3.42;;;7.20;99.90;;;;;;5030956;28;20049;-84
2023/04/13 06:44:33;;;;;;;7.18;3.00;;;7.30;99.90;;;;;;5029444;28;20036;-82
2023/04/13 06:46:58;;;;;;;6.78;3.28;;;7.30;99.90;;;;;;5029074;28;20059;-84
2023/04/13 06:49:24;;;;;;;6.72;2.67;;;7.20;99.90;;;;;;5040828;28;20032;-87
2023/04/13 06:51:50;;;;;;;5.93;2.63;;;7.30;99.90;;;;;;5052294;28;20101;-85
2023/04/13 06:54:16;;;;;;;7.10;3.05;;;7.30;99.90;;;;;;5046374;28;20061;-85
2023/04/13 06:56:41;;;;;;;9.30;2.97;;;7.40;99.90;;;;;;5044559;28;20479;-85
2023/04/13 06:59:07;;;;;;;7.38;2.75;;;7.40;99.90;;;;;;5047360;28;20548;-85
2023/04/13 07:01:33;;;;;;;7.40;3.33;;;7.50;99.90;;;;;;5026467;28;20127;-85
2023/04/13 07:03:59;;;;;;;8.98;3.38;;;7.40;99.90;;;;;;5037012;28;20056;-84
2023/04/13 07:06:25;;;;;;;11.25;3.42;;;7.40;99.90;;;;;;5031980;28;20040;-85
2023/04/13 07:08:51;;;;;;;7.65;3.60;;;7.40;99.90;;;;;;5038856;28;20044;-85
2023/04/13 07:11:19;;;;;;;7.47;3.50;;;7.50;99.90;;;;;;5049248;28;20051;-86
2023/04/13 07:13:45;;;;;;;8.52;3.35;;;7.50;99.90;;;;;;5034259;28;20048;-85
2023/04/13 07:16:11;;;;;;;11.65;4.03;;;7.60;99.90;;;;;;5031060;28;20041;-85
2023/04/13 07:18:37;;;;;;;10.15;3.85;;;7.70;99.90;;;;;;5025227;28;20143;-85
2023/04/13 07:21:04;;;;;;;7.75;2.97;;;7.70;99.90;;;;;;5028896;28;20059;-84
2023/04/13 07:23:31;;;;;;;8.93;3.58;;;7.70;99.90;;;;;;5025562;28;20118;-85
2023/04/13 07:25:57;;;;;;;8.57;3.08;;;7.70;99.90;;;;;;5041478;28;20226;-86
2023/04/13 07:28:24;;;;;;;9.95;3.78;;;7.70;99.90;;;;;;5020064;28;20058;-86
2023/04/13 07:30:51;;;;;;;6.45;2.78;;;7.70;99.90;;;;;;5050368;28;20452;-86
2023/04/13 07:33:17;;;;;;;9.20;2.78;;;7.70;99.90;;;;;;5042740;28;20039;-85
2023/04/13 07:35:43;;;;;;;7.53;3.03;;;7.80;99.90;;;;;;5058350;28;20389;-85
2023/04/13 07:38:08;;;;;;;7.35;3.08;;;7.90;99.90;;;;;;5016061;28;20328;-85
2023/04/13 07:40:34;;;;;;;5.25;2.45;;;8.00;99.90;;;;;;5031552;28;20042;-85
2023/04/13 07:43:00;;;;;;;6.85;2.70;;;8.10;99.90;;;;;;5039757;28;20040;-83
2023/04/13 07:45:30;;;;;;;8.63;3.15;;;8.10;99.90;;;;;;5032780;28;20048;-84
2023/04/13 07:47:56;;;;;;;8.75;2.65;;;8.10;99.90;;;;;;5031736;28;20062;-84
2023/04/13 07:50:22;;;;;;;10.18;2.80;;;8.20;99.90;;;;;;5022212;28;20186;-84
2023/04/13 07:52:48;;;;;;;7.45;2.42;;;8.30;99.90;;;;;;5047944;28;20052;-85
2023/04/13 07:55:14;;;;;;;10.27;2.67;;;8.40;99.90;;;;;;5051893;28;20194;-84
2023/04/13 07:57:40;;;;;;;6.63;2.30;;;8.40;99.90;;;;;;5039434;28;20102;-84
2023/04/13 08:00:07;;;;;;;4.82;1.63;;;8.40;99.90;;;;;;5033045;28;20122;-85
2023/04/13 08:02:33;;;;;;;8.30;2.00;;;8.50;99.90;;;;;;5031405;28;20094;-84
2023/04/13 08:04:59;;;;;;;6.90;2.10;;;8.80;99.90;;;;;;5041176;28;20126;-85
2023/04/13 08:07:28;;;;;;;7.75;1.50;;;8.60;99.90;;;;;;5030308;28;20514;-84
2023/04/13 08:09:54;;;;;;;4.10;1.50;;;8.60;99.90;;;;;;5044311;28;20376;-85
2023/04/13 08:12:20;;;;;;;5.75;1.63;;;8.50;99.90;;;;;;5054410;28;20505;-84
2023/04/13 08:14:45;;;;;;;4.95;1.40;;;8.50;99.90;;;;;;5053359;28;20474;-85
2023/04/13 08:17:11;;;;;;;5.70;1.40;;;8.40;99.90;;;;;;5052530;28;20043;-85
2023/04/13 08:19:37;;;;;;;6.07;2.15;;;8.40;99.90;;;;;;5027676;28;20057;-85
2023/04/13 08:22:03;;;;;;;6.47;2.22;;;8.40;99.90;;;;;;5023026;28;20569;-85
2023/04/13 08:24:29;;;;;;;6.78;2.10;;;8.30;99.90;;;;;;5047118;28;20156;-85
2023/04/13 08:26:57;;;;;;;6.90;2.20;;;8.30;99.90;;;;;;5036589;28;20087;-86
2023/04/13 08:29:24;;;;;;;6.72;2.22;;;8.30;99.90;;;;;;5024226;28;20079;-85
2023/04/13 08:31:50;;;;;;;4.28;1.80;;;8.40;99.90;;;;;;5029933;28;20116;-85
2023/04/13 08:34:17;;;;;;;5.18;2.78;;;8.50;99.90;;;;;;5041420;28;20041;-85
2023/04/13 08:36:44;;;;;;;6.97;2.28;;;8.60;99.90;;;;;;5054277;28;20499;-86
2023/04/13 08:39:12;;;;;;;4.72;2.08;;;8.60;99.90;;;;;;5029529;28;20043;-85
2023/04/13 08:41:39;;;;;;;6.65;2.00;;;8.60;99.90;;;;;;5038171;28;20056;-84
2023/04/13 08:44:07;;;;;;;4.68;1.98;;;8.70;99.90;;;;;;5041128;28;20048;-85
2023/04/13 08:46:33;;;;;;;8.05;2.10;;;8.60;99.90;;;;;;5061250;28;20056;-85
2023/04/13 08:49:02;;;;;;;5.63;1.70;;;8.50;99.90;;;;;;5035224;28;20039;-86
2023/04/13 08:51:30;;;;;;;3.97;1.60;;;8.50;99.90;;;;;;5057491;28;20040;-86
2023/04/13 08:53:59;;;;;;;4.03;1.50;;;8.70;99.90;;;;;;5057189;28;20080;-84
2023/04/13 08:56:26;;;;;;;4.88;1.40;;;8.80;99.90;;;;;;5045086;28;20036;-86
2023/04/13 08:58:57;;;;;;;6.20;1.80;;;8.70;99.90;;;;;;5046936;28;20044;-87
2023/04/13 09:01:25;;;;;;;5.78;1.80;;;8.70;99.90;;;;;;5033140;28;20063;-81
2023/04/13 09:04:07;;;;;;;4.50;1.77;;;8.70;99.90;;;;;;5027093;28;20064;-82
2023/04/13 09:06:36;;;;;;;3.00;1.38;;;8.80;99.90;;;;;;5035564;28;20111;-82
2023/04/13 09:09:09;;;;;;;4.57;1.40;;;8.80;99.90;;;;;;5045206;28;20405;-81
2023/04/13 09:11:36;;;;;;;6.17;1.80;;;8.80;99.90;;;;;;5016783;28;20083;-80
2023/04/13 09:14:02;;;;;;;3.83;1.38;;;8.80;99.90;;;;;;5034195;28;20041;-80
2023/04/13 09:16:28;;;;;;;3.97;1.23;;;8.80;99.90;;;;;;5028613;28;20045;-82
2023/04/13 09:18:58;;;;;;;3.28;1.10;;;8.90;99.90;;;;;;5044652;28;20060;-81
2023/04/13 09:21:39;;;;;;;3.72;1.15;;;9.00;99.90;;;;;;5030919;28;20048;-80
2023/04/13 09:24:06;;;;;;;3.72;1.00;;;9.10;99.90;;;;;;5048334;28;20606;-81
2023/04/13 09:26:46;;;;;;;2.90;0.77;;;9.30;99.90;;;;;;5036975;28;20044;-82
2023/04/13 09:29:16;;;;;;;5.30;1.10;;;9.50;99.90;;;;;;5043904;28;20049;-81
2023/04/13 09:31:43;;;;;;;3.83;0.82;;;9.70;99.90;;;;;;5035630;28;20141;-82
2023/04/13 09:34:09;;;;;;;2.55;0.60;;;10.00;99.90;;;;;;5032634;28;20041;-82
2023/04/13 09:36:36;;;;;;;1.30;0.40;;;10.10;99.90;;;;;;5028948;28;20115;-83
2023/04/13 09:39:03;;;;;;;3.30;0.60;;;10.20;99.90;;;;;;5019909;28;20092;-81
2023/04/13 09:41:37;;;;;;;3.28;1.00;;;10.30;99.90;;;;;;5050144;28;20377;-82
2023/04/13 09:44:19;;;;;;;5.03;0.80;;;10.60;99.90;;;;;;5058252;28;20071;-82
2023/04/13 09:47:02;;;;;;;3.25;0.60;;;10.50;99.90;;;;;;5038778;28;20051;-82
2023/04/13 09:49:42;;;;;;;3.65;0.75;;;10.50;99.90;;;;;;5034816;28;20041;-85
2023/04/13 09:52:25;;;;;;;3.78;1.15;;;10.30;99.90;;;;;;5036407;28;20055;-82
2023/04/13 09:54:58;;;;;;;1.92;0.55;;;10.10;99.90;;;;;;5030627;28;20044;-82
2023/04/13 09:57:26;;;;;;;0.57;0.30;;;10.00;99.90;;;;;;5032832;28;20246;-81
2023/04/13 09:59:53;;;;;;;4.70;0.45;;;10.00;99.90;;;;;;5050100;28;20045;-81
2023/04/13 10:02:19;;;;;;;3.10;0.50;;;10.00;99.90;;;;;;5036978;28;20062;-82
2023/04/13 10:04:45;;;;;;;3.83;0.60;;;9.70;99.90;;;;;;5047991;28;20055;-82
2023/04/13 10:07:12;;;;;;;2.10;0.40;;;9.50;99.90;;;;;;5034909;28;20103;-82
2023/04/13 10:09:43;;;;;;;2.47;0.60;;;9.20;99.90;;;;;;5023044;28;20694;-82
2023/04/13 10:12:10;;;;;;;2.33;0.50;;;8.90;99.90;;;;;;5019395;28;20143;-82
2023/04/13 10:14:39;;;;;;;2.55;0.57;;;8.80;99.90;;;;;;5049232;28;20103;-82
2023/04/13 10:17:09;;;;;;;2.30;0.75;;;8.70;99.90;;;;;;5047917;28;20155;-83
2023/04/13 10:19:42;;;;;;;1.63;0.63;;;8.60;99.90;;;;;;5029646;28;20076;-84
2023/04/13 10:22:10;;;;;;;3.05;0.60;;;8.70;99.90;;;;;;5032297;28;20128;-84
2023/04/13 10:24:38;;;;;;;1.60;0.38;;;8.60;99.90;;;;;;5043190;28;20506;-84
2023/04/13 10:27:13;;;;;;;3.42;0.68;;;8.60;99.90;;;;;;5028571;28;20040;-84
2023/04/13 10:29:39;;;;;;;4.18;0.60;;;8.60;99.90;;;;;;5016888;28;20041;-84
2023/04/13 10:32:06;;;;;;;2.60;0.80;;;8.70;99.90;;;;;;5054153;28;20055;-84
2023/04/13 10:34:33;;;;;;;5.32;0.80;;;8.90;99.90;;;;;;5053742;28;20155;-83
2023/04/13 10:37:03;;;;;;;3.92;0.85;;;9.00;99.90;;;;;;5043091;28;20052;-84
2023/04/13 10:39:32;;;;;;;4.07;0.68;;;9.00;99.90;;;;;;5038165;28;20142;-84
2023/04/13 10:42:01;;;;;;;2.83;0.50;;;8.90;99.90;;;;;;5033047;28;20041;-86
2023/04/13 10:44:39;;;;;;;3.50;0.50;;;8.80;99.90;;;;;;5028664;28;20037;-84
2023/04/13 10:47:06;;;;;;;1.35;0.30;;;8.70;99.90;;;;;;5031465;28;20040;-84
2023/04/13 10:49:32;;;;;;;2.15;0.50;;;8.60;99.90;;;;;;5027330;28;20037;-85
2023/04/13 10:51:57;;;;;;;1.65;0.40;;;8.50;99.90;;;;;;5034852;28;20434;-84
2023/04/13 10:54:28;;;;;;;2.75;0.60;;;8.40;99.90;;;;;;5044246;28;20174;-83
2023/04/13 10:57:01;;;;;;;1.63;0.50;;;8.40;99.90;;;;;;5037830;28;20043;-84
2023/04/13 10:59:43;;;;;;;3.22;0.70;;;8.40;99.90;;;;;;5027458;28;20125;-84
2023/04/13 11:02:14;;;;;;;3.30;0.50;;;8.50;99.90;;;;;;5050528;28;20052;-83
2023/04/13 11:04:41;;;;;;;4.40;0.90;;;8.60;99.90;;;;;;5051588;28;20525;-82
2023/04/13 11:07:12;;;;;;;6.55;0.75;;;8.80;99.90;;;;;;5047377;28;20137;-82
2023/04/13 11:09:39;;;;;;;10.30;1.60;;;9.00;99.90;;;;;;5054438;28;20107;-82
2023/04/13 11:12:07;;;;;;;7.43;1.08;;;9.30;99.90;;;;;;5048164;28;20094;-82
2023/04/13 11:14:35;;;;;;;5.78;1.30;;;9.40;99.90;;;;;;5053172;28;20745;-82
2023/04/13 11:17:01;;;;;;;7.68;1.45;;;9.60;99.90;;;;;;5024039;28;20044;-82
2023/04/13 11:19:27;;;;;;;7.20;1.38;;;9.80;99.90;;;;;;5025764;28;20061;-81
2023/04/13 11:21:55;;;;;;;10.75;1.45;;;10.00;99.90;;;;;;5028217;28;20045;-81
2023/04/13 11:24:32;;;;;;;9.70;2.22;;;10.10;99.90;;;;;;5035484;28;20066;-81
2023/04/13 11:26:58;;;;;;;9.82;1.60;;;10.30;99.90;;;;;;5027196;28;20040;-81
2023/04/13 11:29:24;;;;;;;9.70;2.00;;;10.30;99.90;;;;;;5053063;28;20032;-82
2023/04/13 11:31:50;;;;;;;13.18;1.83;;;10.30;99.90;;;;;;5032952;28;20048;-82
2023/04/13 11:34:27;;;;;;;9.63;1.80;;;10.30;99.90;;;;;;5049336;28;20187;-82
2023/04/13 11:37:00;;;;;;;12.50;1.73;;;10.20;99.90;;;;;;5023459;28;20049;-84
2023/04/13 11:39:27;;;;;;;5.70;1.63;;;10.20;99.90;;;;;;5050053;28;20036;-79
2023/04/13 11:41:55;;;;;;;12.00;1.70;;;10.20;99.90;;;;;;5047951;28;20131;-81
2023/04/13 11:44:22;;;;;;;9.95;2.05;;;10.20;99.90;;;;;;5050105;28;20597;-86
2023/04/13 11:46:51;;;;;;;10.68;2.30;;;10.10;99.90;;;;;;5030721;28;20056;-85
2023/04/13 11:49:17;;;;;;;9.43;1.50;;;10.20;99.90;;;;;;5030902;28;20124;-84
2023/04/13 11:51:43;;;;;;;9.00;1.55;;;10.30;99.90;;;;;;5035634;28;20118;-84
2023/04/13 11:54:10;;;;;;;10.38;1.42;;;10.40;99.90;;;;;;5024370;28;20400;-85
2023/04/13 11:56:36;;;;;;;10.30;1.60;;;10.50;99.90;;;;;;5044940;28;20071;-84
2023/04/13 11:59:02;;;;;;;9.40;1.40;;;10.50;99.90;;;;;;5024290;28;20051;-84
2023/04/13 12:01:28;;;;;;;6.97;1.95;;;10.50;99.90;;;;;;5033861;28;20037;-84
2023/04/13 12:04:02;;;;;;;12.35;1.63;;;10.50;99.90;;;;;;5053039;28;20126;-83
2023/04/13 12:06:31;;;;;;;12.70;1.73;;;10.50;99.90;;;;;;5031228;28;20098;-84
2023/04/13 12:09:01;;;;;;;8.40;1.40;;;10.60;99.90;;;;;;5018831;28;20066;-83
2023/04/13 12:11:39;;;;;;;6.63;1.33;;;10.60;99.90;;;;;;5044435;28;20036;-82
2023/04/13 12:14:05;;;;;;;8.43;1.48;;;10.60;99.90;;;;;;5051635;28;20487;-84
2023/04/13 12:16:33;;;;;;;5.85;1.02;;;10.70;99.90;;;;;;5019639;28;20048;-83
2023/04/13 12:19:06;;;;;;;8.77;1.70;;;10.80;99.90;;;;;;5032201;28;20056;-85
2023/04/13 12:21:33;;;;;;;7.90;1.17;;;11.00;99.90;;;;;;5051021;28;20037;-85
2023/04/13 12:24:00;;;;;;;8.50;1.70;;;11.00;99.90;;;;;;5033461;28;20036;-85
2023/04/13 12:26:35;;;;;;;5.28;1.15;;;11.00;99.90;;;;;;5048095;28;20037;-83
2023/04/13 12:29:04;;;;;;;7.95;1.52;;;11.00;99.90;;;;;;5053237;28;20040;-82
2023/04/13 12:31:37;;;;;;;10.13;1.60;;;11.00;99.90;;;;;;5049858;28;20124;-83
2023/04/13 12:34:06;;;;;;;8.65;1.15;;;11.00;99.90;;;;;;5034352;28;20491;-82
2023/04/13 12:36:35;;;;;;;8.27;1.30;;;11.00;99.90;;;;;;5030257;28;20065;-82
2023/04/13 12:39:01;;;;;;;8.70;1.20;;;11.10;99.90;;;;;;5052772;28;20147;-83
2023/04/13 12:41:27;;;;;;;8.63;1.88;;;10.90;99.90;;;;;;5047009;28;20589;-83
2023/04/13 12:43:53;;;;;;;5.90;1.10;;;10.80;99.90;;;;;;5029591;28;20049;-82
2023/04/13 12:46:19;;;;;;;10.48;1.30;;;10.80;99.90;;;;;;5048153;28;20036;-84
2023/04/13 12:48:45;;;;;;;15.55;2.03;;;10.70;99.90;;;;;;5052473;28;20067;-84
2023/04/13 12:51:11;;;;;;;9.02;1.63;;;10.70;99.90;;;;;;5031697;28;20044;-84
2023/04/13 12:53:37;;;;;;;9.45;2.22;;;10.70;99.90;;;;;;5031278;28;20045;-84
2023/04/13 12:56:03;;;;;;;14.13;1.63;;;10.70;99.90;;;;;;5018475;28;20045;-83
2023/04/13 12:58:29;;;;;;;9.93;1.77;;;10.70;99.90;;;;;;5028933;28;20094;-83